BYL Airport (Williamsburg-Whitley County) Information

FAA: BYL - ICAO: KBYL

BYL Airport Location

State Kentucky
County Whitley
City Williamsburg
BYL Airport is 4 miles north-northwest of Williamsburg, KY.
Latitude 36-47-41.9970N
Longitude 084-11-58.2630W
Elevation 1,177ft

KBYL Airport METARs

METAR KBYL 301835Z AUTO 30004KT 10SM CLR 14/00 A3009 RMK AO1
Altimeter 30.09"
Temperature 14.0°C (57.2°F)
Wind 300° at 4KT
Clouds Skies are clear.
Visibility 10.0mi
Time observed: 2021-11-30T18:35:00Z

BYL Airport Details

Status Operational
Activation March 2005
Ownership Public
Usage Public
Chart CINCINNATI
ATC on-site No
Beacon schedule sunset-sunrise
Beacon color clear green

BYL Airport Contacts

Owner WILLIAMSBURG-WHITLEY CNTY APT BOARD
Owner address 1000 AVIATION BOULEVARD, WILLIAMSBURG, KY 40769
Owner phone 606-549-2688
Manager MARSHALL HODGES
Manager address 661 LYONS CHAPEL ROAD, TOMPKINSVILLE, KY 42167
Manager phone 214-458-0600

BYL Airport (Williamsburg-Whitley County) Radio Frequencies

BYL (Airport) Radio Frequencies

UNICOM 122.7
Common traffic advisory frequency (CTAF) 122.7